Enrico Ievoli — IBKI — position and weather

sailwx.info

Track history (hours):
 
Tides and Currents Weather Stations Pressure Air Temp Water Temp Dewpoint Dewpoint Depression Visibility Wind Speed Wind Dir Waves Ship Positions

Enrico Ievoli

Last reported at 2018-Jun-21 16:30 UTC. Time now 2018-Jun-21 16:29 UTC.
Position N 43°39' E 013°51'.

Length 138 m; draft 5.1 m.

Type: Tanker. MMSI: 247597000.

Date/timePositionNaut miles runAvg speedWind from/ knotsBaromVisibWave heightAir tempDewpointWater temp
2018-Jun-21 16:30N 43°39' E 013°51'3413.7
2018-Jun-21 14:03N 44°04' E 013°20'113.8
2018-Jun-21 14:00N 44°05' E 013°19'1313.6
2018-Jun-21 13:01N 44°16' E 013°09'1413.5
2018-Jun-21 11:59N 44°29' E 013°04'613.4
2018-Jun-21 11:31N 44°35' E 013°01'813.7
2018-Jun-21 10:54N 44°43' E 012°58'613.9
2018-Jun-21 10:30N 44°48' E 012°55'714.2
2018-Jun-21 10:00N 44°55' E 012°50'714.2
2018-Jun-21 09:30N 45°01' E 012°45'713.8
2018-Jun-21 09:00N 45°07' E 012°41'713.5
2018-Jun-21 08:30N 45°11' E 012°33'613.0
2018-Jun-21 08:00N 45°16' E 012°28'612.6
2018-Jun-21 07:30N 45°20' E 012°21'4 8.7
2018-Jun-21 07:00N 45°23' E 012°15'4 7.1
2018-Jun-21 06:29N 45°26' E 012°15'1 1.8
2018-Jun-21 05:50N 45°26' E 012°13'0 0.0
2018-Jun-21 05:29N 45°26' E 012°13'0 0.0
2018-Jun-21 04:56N 45°26' E 012°13'0 0.0
2018-Jun-21 04:26N 45°26' E 012°13'0 0.0
2018-Jun-21 04:00N 45°26' E 012°13'0 0.0
2018-Jun-21 03:20N 45°26' E 012°13'0 0.0
2018-Jun-21 02:59N 45°26' E 012°13'0 0.0
2018-Jun-21 02:29N 45°26' E 012°13'0 0.0
2018-Jun-21 01:59N 45°26' E 012°13'0 0.0
2018-Jun-21 01:29N 45°26' E 012°13'0 0.0
2018-Jun-21 00:59N 45°26' E 012°13'0 0.0
2018-Jun-21 00:23N 45°26' E 012°13'0 0.0
2018-Jun-20 23:59N 45°26' E 012°13'0 0.0
2018-Jun-20 23:26N 45°26' E 012°13'0 0.0
2018-Jun-20 22:59N 45°26' E 012°13'0 0.0
2018-Jun-20 22:29N 45°26' E 012°13'0 0.0
2018-Jun-20 21:53N 45°26' E 012°13'0 0.0
2018-Jun-20 21:29N 45°26' E 012°13'0 0.0
2018-Jun-20 20:53N 45°26' E 012°13'0 0.0
2018-Jun-20 20:23N 45°26' E 012°13'0 0.0
2018-Jun-20 19:59N 45°26' E 012°13'0 0.0
2018-Jun-20 18:50N 45°26' E 012°13'0 0.0
2018-Jun-20 18:23N 45°26' E 012°13'0 0.0
2018-Jun-20 17:47N 45°26' E 012°13'0 0.0
2018-Jun-20 17:17N 45°26' E 012°13'0 0.0
2018-Jun-20 16:59N 45°26' E 012°13'0 0.0
2018-Jun-20 16:29N 45°26' E 012°13'0 0.0
2018-Jun-20 15:59N 45°26' E 012°13'0 0.0
2018-Jun-20 15:29N 45°26' E 012°13'0 0.0
2018-Jun-20 14:59N 45°26' E 012°13'0 0.0
2018-Jun-20 14:23N 45°26' E 012°13'0 0.0
2018-Jun-20 13:53N 45°26' E 012°13'0 0.0
2018-Jun-20 13:26N 45°26' E 012°13'0 0.0
2018-Jun-20 12:56N 45°26' E 012°13'0 0.0
2018-Jun-20 12:20N 45°26' E 012°13'0 0.0
2018-Jun-20 11:59N 45°26' E 012°13'0 0.0
2018-Jun-20 11:29N 45°26' E 012°13'0 0.0
2018-Jun-20 10:05N 45°26' E 012°13'0 0.0
2018-Jun-20 09:38N 45°26' E 012°13'0 0.0
2018-Jun-20 09:26N 45°26' E 012°13'0 0.0
2018-Jun-20 08:44N 45°26' E 012°13'0 0.0
2018-Jun-20 08:29N 45°26' E 012°13'0 0.0
2018-Jun-20 07:56N 45°26' E 012°13'0 0.0
2018-Jun-20 07:20N 45°26' E 012°13'0 0.0
2018-Jun-20 06:59N 45°26' E 012°13'0 0.4
2018-Jun-20 06:30N 45°26' E 012°13'2 2.8
2018-Jun-20 05:57N 45°26' E 012°15'3 5.9
2018-Jun-20 05:30N 45°23' E 012°16'3 6.6
2018-Jun-20 05:00N 45°20' E 012°18'4 8.2
2018-Jun-20 04:30N 45°20' E 012°23'1 1.0
2018-Jun-20 04:00N 45°20' E 012°24'0 0.3
2018-Jun-20 03:30N 45°20' E 012°24'0 0.1
2018-Jun-20 03:00N 45°20' E 012°24'0 0.0
2018-Jun-20 02:30N 45°20' E 012°24'0 0.1
2018-Jun-20 02:00N 45°20' E 012°24'0 0.1
2018-Jun-20 01:30N 45°20' E 012°24'0 0.1
2018-Jun-20 01:00N 45°20' E 012°24'0 0.1
2018-Jun-20 00:30N 45°20' E 012°24'0 0.1
2018-Jun-20 00:00N 45°20' E 012°24'0 0.0
2018-Jun-19 23:30N 45°20' E 012°24'0 0.0
2018-Jun-19 23:00N 45°20' E 012°24'0 0.0
2018-Jun-19 22:30N 45°20' E 012°24'0 0.0
2018-Jun-19 21:51N 45°20' E 012°24'0 0.0
2018-Jun-19 21:27N 45°20' E 012°24'0 0.0
2018-Jun-19 21:00N 45°20' E 012°24'0 0.0
2018-Jun-19 20:27N 45°20' E 012°24'0 0.0
2018-Jun-19 20:00N 45°20' E 012°24'0 0.0
2018-Jun-19 19:30N 45°20' E 012°24'0 0.0
2018-Jun-19 19:00N 45°20' E 012°24'0 0.4
2018-Jun-19 18:29N 45°20' E 012°24'5 9.6
2018-Jun-19 18:00N 45°18' E 012°30'1212.8
2018-Jun-19 17:02N 45°10' E 012°44'312.9
2018-Jun-19 16:49N 45°09' E 012°47'412.7
2018-Jun-19 16:30N 45°05' E 012°50'1013.0
2018-Jun-19 15:43N 44°55' E 012°55'413.0
2018-Jun-19 15:23N 44°51' E 012°58'513.0
2018-Jun-19 15:00N 44°47' E 013°00'442 9.9
2018-Jun-17 18:18N 37°46' E 016°03'413.3
2018-Jun-17 17:58N 37°43' E 015°59'1013.4
2018-Jun-17 17:15N 37°37' E 015°50'413.3
2018-Jun-17 16:59N 37°34' E 015°46'613.0
2018-Jun-17 16:30N 37°30' E 015°41'1512.8
2018-Jun-17 15:18N 37°20' E 015°27'0 0.0
2018-Jun-16 08:12N 37°19' E 015°27'514.3
2018-Jun-16 07:51N 37°23' E 015°31'614.2
2018-Jun-16 07:26N 37°27' E 015°37'614.0
2018-Jun-16 06:59N 37°31' E 015°42'1813.6
2018-Jun-16 05:40N 37°44' E 015°59'213.6
2018-Jun-16 05:29N 37°45' E 016°01'44110.6
2018-Jun-14 11:54N 44°44' E 012°57'614.4
2018-Jun-14 11:30N 44°49' E 012°54'714.4
2018-Jun-14 11:00N 44°55' E 012°49'714.1
2018-Jun-14 10:30N 45°02' E 012°45'713.7
2018-Jun-14 10:00N 45°08' E 012°40'713.5
2018-Jun-14 09:30N 45°12' E 012°32'612.2
2018-Jun-14 09:00N 45°17' E 012°27'611.2
2018-Jun-14 08:30N 45°20' E 012°21'4 8.3
2018-Jun-14 08:00N 45°22' E 012°15'4 7.9
2018-Jun-14 07:30N 45°26' E 012°16'2 3.6
2018-Jun-14 07:00N 45°26' E 012°13'0 0.4
2018-Jun-14 06:16N 45°26' E 012°13'0 0.0
2018-Jun-14 05:58N 45°26' E 012°13'0 0.0
2018-Jun-14 05:28N 45°26' E 012°13'0 0.0
2018-Jun-14 04:58N 45°26' E 012°13'0 0.0
2018-Jun-14 04:25N 45°26' E 012°13'0 0.0
2018-Jun-14 03:49N 45°26' E 012°13'0 0.0
2018-Jun-14 03:19N 45°26' E 012°13'0 0.0
2018-Jun-14 02:58N 45°26' E 012°13'0 0.0
2018-Jun-14 02:25N 45°26' E 012°13'0 0.0
2018-Jun-14 01:55N 45°26' E 012°13'0 0.0
2018-Jun-14 01:25N 45°26' E 012°13'0 0.0
2018-Jun-14 00:58N 45°26' E 012°13'0 0.0
2018-Jun-14 00:28N 45°26' E 012°13'0 0.0
2018-Jun-13 23:58N 45°26' E 012°13'0 0.0
2018-Jun-13 23:28N 45°26' E 012°13'0 0.0
2018-Jun-13 22:52N 45°26' E 012°13'0 0.0
2018-Jun-13 22:28N 45°26' E 012°13'0 0.0
2018-Jun-13 21:58N 45°26' E 012°13'0 0.0
2018-Jun-13 21:28N 45°26' E 012°13'0 0.0
2018-Jun-13 20:58N 45°26' E 012°13'0 0.0
2018-Jun-13 20:25N 45°26' E 012°13'0 0.0
2018-Jun-13 19:58N 45°26' E 012°13'0 0.0
2018-Jun-13 19:28N 45°26' E 012°13'0 0.0
2018-Jun-13 18:58N 45°26' E 012°13'0 0.0
2018-Jun-13 18:25N 45°26' E 012°13'0 0.0
2018-Jun-13 17:58N 45°26' E 012°13'0 0.0
2018-Jun-13 17:28N 45°26' E 012°13'0 0.0
2018-Jun-13 16:58N 45°26' E 012°13'0 0.0
2018-Jun-13 16:28N 45°26' E 012°13'0 0.0
2018-Jun-13 15:58N 45°26' E 012°13'0 0.0
2018-Jun-13 15:28N 45°26' E 012°13'0 0.0
2018-Jun-13 14:58N 45°26' E 012°13'0 0.0
2018-Jun-13 14:28N 45°26' E 012°13'0 0.0
2018-Jun-13 13:40N 45°26' E 012°13'0 0.0
2018-Jun-13 13:25N 45°26' E 012°13'0 0.0
2018-Jun-13 12:58N 45°26' E 012°13'0 0.0
2018-Jun-13 12:28N 45°26' E 012°13'0 0.0
2018-Jun-13 11:58N 45°26' E 012°13'0 0.0
2018-Jun-13 11:28N 45°26' E 012°13'0 0.0
2018-Jun-13 10:58N 45°26' E 012°13'0 0.0
2018-Jun-13 10:28N 45°26' E 012°13'0 0.0
2018-Jun-13 09:55N 45°26' E 012°13'0 0.0
2018-Jun-13 09:28N 45°26' E 012°13'0 0.0
2018-Jun-13 04:48N 45°26' E 012°13'0 0.0
2018-Jun-13 04:30N 45°26' E 012°13'0 0.0
2018-Jun-13 03:57N 45°26' E 012°13'0 0.0
2018-Jun-13 03:30N 45°26' E 012°13'0 0.0
2018-Jun-13 02:51N 45°26' E 012°13'0 0.0
2018-Jun-13 02:30N 45°26' E 012°13'0 0.0
2018-Jun-13 02:00N 45°26' E 012°13'0 0.0
2018-Jun-13 01:30N 45°26' E 012°13'0 0.0
2018-Jun-13 01:00N 45°26' E 012°13'0 0.0
2018-Jun-13 00:21N 45°26' E 012°13'0 0.0
2018-Jun-12 23:57N 45°26' E 012°13'0 0.0
2018-Jun-12 23:27N 45°26' E 012°13'0 0.0
2018-Jun-12 22:57N 45°26' E 012°13'0 0.0
2018-Jun-12 22:30N 45°26' E 012°13'0 0.0
2018-Jun-12 22:00N 45°26' E 012°13'0 0.0
2018-Jun-12 21:30N 45°26' E 012°13'0 0.0
2018-Jun-12 20:57N 45°26' E 012°13'0 0.0
2018-Jun-12 19:57N 45°26' E 012°13'0 0.0
2018-Jun-12 19:00N 45°26' E 012°13'0 0.1
2018-Jun-12 18:04N 45°26' E 012°14'0 4.4
2018-Jun-12 18:00N 45°26' E 012°14'2 4.2
2018-Jun-12 17:30N 45°25' E 012°16'4 8.4
2018-Jun-12 17:00N 45°21' E 012°17'4 9.2
2018-Jun-12 16:30N 45°20' E 012°23'1 1.0
2018-Jun-12 15:59N 45°20' E 012°24'0 0.0
2018-Jun-12 15:28N 45°20' E 012°24'0 0.0
2018-Jun-12 14:58N 45°20' E 012°24'0 0.0
2018-Jun-12 14:28N 45°20' E 012°24'0 0.1
2018-Jun-12 13:58N 45°20' E 012°24'0 0.2
2018-Jun-12 13:28N 45°20' E 012°24'0 0.1
2018-Jun-12 12:55N 45°20' E 012°24'0 0.1
2018-Jun-12 12:28N 45°20' E 012°24'0 0.0
2018-Jun-12 11:58N 45°20' E 012°24'0 0.0
2018-Jun-12 11:28N 45°20' E 012°24'0 0.0
2018-Jun-12 10:58N 45°20' E 012°24'0 0.0
2018-Jun-12 10:28N 45°20' E 012°24'0 0.0
2018-Jun-12 09:58N 45°20' E 012°24'0 0.0
2018-Jun-12 09:28N 45°20' E 012°24'0 0.0
2018-Jun-12 08:58N 45°20' E 012°24'0 0.0
2018-Jun-12 08:28N 45°20' E 012°24'0 0.0
2018-Jun-12 07:58N 45°20' E 012°24'0 0.0
2018-Jun-12 07:28N 45°20' E 012°24'0 0.0
2018-Jun-12 06:58N 45°20' E 012°24'0 0.0
2018-Jun-12 06:28N 45°20' E 012°24'0 0.0
2018-Jun-12 05:58N 45°20' E 012°24'0 0.6
2018-Jun-12 05:30N 45°20' E 012°24'4 7.3
2018-Jun-12 05:00N 45°18' E 012°28'4 7.9
2018-Jun-12 04:30N 45°16' E 012°33'611.1
2018-Jun-12 04:00N 45°13' E 012°40'511.0
2018-Jun-12 03:30N 45°10' E 012°46'510.7
2018-Jun-12 03:00N 45°05' E 012°50'511.1
2018-Jun-12 02:30N 45°00' E 012°54'611.1
2018-Jun-12 02:00N 44°55' E 012°57'511.1
2018-Jun-12 01:30N 44°50' E 012°59'611.1
2018-Jun-12 01:00N 44°45' E 013°02'611.0
2018-Jun-12 00:29N 44°39' E 013°04'14 8.9
2018-Jun-11 22:59N 44°31' E 012°49'711.1
2018-Jun-11 22:18N 44°29' E 012°39'810.7
2018-Jun-11 21:32N 44°29' E 012°27'111.0
2018-Jun-11 21:28N 44°30' E 012°26'7 1.5
2018-Jun-11 16:57N 44°29' E 012°16'  
Track history (hours):
 
Tides and Currents Weather Stations Pressure Air Temp Water Temp Dewpoint Dewpoint Depression Visibility Wind Speed Wind Dir Waves Ship Positions

Enrico Ievoli

Last reported at 2018-Jun-21 16:30 UTC. Time now 2018-Jun-21 16:29 UTC.
Position N 43°39' E 013°51'.

Length 138 m; draft 5.1 m.

Type: Tanker. MMSI: 247597000.

Date/timePositionNaut miles runAvg speedWind from/ knotsBaromVisibWave heightAir tempDewpointWater temp
2018-Jun-21 16:30N 43°39' E 013°51'3413.7
2018-Jun-21 14:03N 44°04' E 013°20'113.8
2018-Jun-21 14:00N 44°05' E 013°19'1313.6
2018-Jun-21 13:01N 44°16' E 013°09'1413.5
2018-Jun-21 11:59N 44°29' E 013°04'613.4
2018-Jun-21 11:31N 44°35' E 013°01'813.7
2018-Jun-21 10:54N 44°43' E 012°58'613.9
2018-Jun-21 10:30N 44°48' E 012°55'714.2
2018-Jun-21 10:00N 44°55' E 012°50'714.2
2018-Jun-21 09:30N 45°01' E 012°45'713.8
2018-Jun-21 09:00N 45°07' E 012°41'713.5
2018-Jun-21 08:30N 45°11' E 012°33'613.0
2018-Jun-21 08:00N 45°16' E 012°28'612.6
2018-Jun-21 07:30N 45°20' E 012°21'4 8.7
2018-Jun-21 07:00N 45°23' E 012°15'4 7.1
2018-Jun-21 06:29N 45°26' E 012°15'1 1.8
2018-Jun-21 05:50N 45°26' E 012°13'0 0.0
2018-Jun-21 05:29N 45°26' E 012°13'0 0.0
2018-Jun-21 04:56N 45°26' E 012°13'0 0.0
2018-Jun-21 04:26N 45°26' E 012°13'0 0.0
2018-Jun-21 04:00N 45°26' E 012°13'0 0.0
2018-Jun-21 03:20N 45°26' E 012°13'0 0.0
2018-Jun-21 02:59N 45°26' E 012°13'0 0.0
2018-Jun-21 02:29N 45°26' E 012°13'0 0.0
2018-Jun-21 01:59N 45°26' E 012°13'0 0.0
2018-Jun-21 01:29N 45°26' E 012°13'0 0.0
2018-Jun-21 00:59N 45°26' E 012°13'0 0.0
2018-Jun-21 00:23N 45°26' E 012°13'0 0.0
2018-Jun-20 23:59N 45°26' E 012°13'0 0.0
2018-Jun-20 23:26N 45°26' E 012°13'0 0.0
2018-Jun-20 22:59N 45°26' E 012°13'0 0.0
2018-Jun-20 22:29N 45°26' E 012°13'0 0.0
2018-Jun-20 21:53N 45°26' E 012°13'0 0.0
2018-Jun-20 21:29N 45°26' E 012°13'0 0.0
2018-Jun-20 20:53N 45°26' E 012°13'0 0.0
2018-Jun-20 20:23N 45°26' E 012°13'0 0.0
2018-Jun-20 19:59N 45°26' E 012°13'0 0.0
2018-Jun-20 18:50N 45°26' E 012°13'0 0.0
2018-Jun-20 18:23N 45°26' E 012°13'0 0.0
2018-Jun-20 17:47N 45°26' E 012°13'0 0.0
2018-Jun-20 17:17N 45°26' E 012°13'0 0.0
2018-Jun-20 16:59N 45°26' E 012°13'0 0.0
2018-Jun-20 16:29N 45°26' E 012°13'0 0.0
2018-Jun-20 15:59N 45°26' E 012°13'0 0.0
2018-Jun-20 15:29N 45°26' E 012°13'0 0.0
2018-Jun-20 14:59N 45°26' E 012°13'0 0.0
2018-Jun-20 14:23N 45°26' E 012°13'0 0.0
2018-Jun-20 13:53N 45°26' E 012°13'0 0.0
2018-Jun-20 13:26N 45°26' E 012°13'0 0.0
2018-Jun-20 12:56N 45°26' E 012°13'0 0.0
2018-Jun-20 12:20N 45°26' E 012°13'0 0.0
2018-Jun-20 11:59N 45°26' E 012°13'0 0.0
2018-Jun-20 11:29N 45°26' E 012°13'0 0.0
2018-Jun-20 10:05N 45°26' E 012°13'0 0.0
2018-Jun-20 09:38N 45°26' E 012°13'0 0.0
2018-Jun-20 09:26N 45°26' E 012°13'0 0.0
2018-Jun-20 08:44N 45°26' E 012°13'0 0.0
2018-Jun-20 08:29N 45°26' E 012°13'0 0.0
2018-Jun-20 07:56N 45°26' E 012°13'0 0.0
2018-Jun-20 07:20N 45°26' E 012°13'0 0.0
2018-Jun-20 06:59N 45°26' E 012°13'0 0.4
2018-Jun-20 06:30N 45°26' E 012°13'2 2.8
2018-Jun-20 05:57N 45°26' E 012°15'3 5.9
2018-Jun-20 05:30N 45°23' E 012°16'3 6.6
2018-Jun-20 05:00N 45°20' E 012°18'4 8.2
2018-Jun-20 04:30N 45°20' E 012°23'1 1.0
2018-Jun-20 04:00N 45°20' E 012°24'0 0.3
2018-Jun-20 03:30N 45°20' E 012°24'0 0.1
2018-Jun-20 03:00N 45°20' E 012°24'0 0.0
2018-Jun-20 02:30N 45°20' E 012°24'0 0.1
2018-Jun-20 02:00N 45°20' E 012°24'0 0.1
2018-Jun-20 01:30N 45°20' E 012°24'0 0.1
2018-Jun-20 01:00N 45°20' E 012°24'0 0.1
2018-Jun-20 00:30N 45°20' E 012°24'0 0.1
2018-Jun-20 00:00N 45°20' E 012°24'0 0.0
2018-Jun-19 23:30N 45°20' E 012°24'0 0.0
2018-Jun-19 23:00N 45°20' E 012°24'0 0.0
2018-Jun-19 22:30N 45°20' E 012°24'0 0.0
2018-Jun-19 21:51N 45°20' E 012°24'0 0.0
2018-Jun-19 21:27N 45°20' E 012°24'0 0.0
2018-Jun-19 21:00N 45°20' E 012°24'0 0.0
2018-Jun-19 20:27N 45°20' E 012°24'0 0.0
2018-Jun-19 20:00N 45°20' E 012°24'0 0.0
2018-Jun-19 19:30N 45°20' E 012°24'0 0.0
2018-Jun-19 19:00N 45°20' E 012°24'0 0.4
2018-Jun-19 18:29N 45°20' E 012°24'5 9.6
2018-Jun-19 18:00N 45°18' E 012°30'1212.8
2018-Jun-19 17:02N 45°10' E 012°44'312.9
2018-Jun-19 16:49N 45°09' E 012°47'412.7
2018-Jun-19 16:30N 45°05' E 012°50'1013.0
2018-Jun-19 15:43N 44°55' E 012°55'413.0
2018-Jun-19 15:23N 44°51' E 012°58'513.0
2018-Jun-19 15:00N 44°47' E 013°00'442 9.9
2018-Jun-17 18:18N 37°46' E 016°03'413.3
2018-Jun-17 17:58N 37°43' E 015°59'1013.4
2018-Jun-17 17:15N 37°37' E 015°50'413.3
2018-Jun-17 16:59N 37°34' E 015°46'613.0
2018-Jun-17 16:30N 37°30' E 015°41'1512.8
2018-Jun-17 15:18N 37°20' E 015°27'0 0.0
2018-Jun-16 08:12N 37°19' E 015°27'514.3
2018-Jun-16 07:51N 37°23' E 015°31'614.2
2018-Jun-16 07:26N 37°27' E 015°37'614.0
2018-Jun-16 06:59N 37°31' E 015°42'1813.6
2018-Jun-16 05:40N 37°44' E 015°59'213.6
2018-Jun-16 05:29N 37°45' E 016°01'44110.6
2018-Jun-14 11:54N 44°44' E 012°57'614.4
2018-Jun-14 11:30N 44°49' E 012°54'714.4
2018-Jun-14 11:00N 44°55' E 012°49'714.1
2018-Jun-14 10:30N 45°02' E 012°45'713.7
2018-Jun-14 10:00N 45°08' E 012°40'713.5
2018-Jun-14 09:30N 45°12' E 012°32'612.2
2018-Jun-14 09:00N 45°17' E 012°27'611.2
2018-Jun-14 08:30N 45°20' E 012°21'4 8.3
2018-Jun-14 08:00N 45°22' E 012°15'4 7.9
2018-Jun-14 07:30N 45°26' E 012°16'2 3.6
2018-Jun-14 07:00N 45°26' E 012°13'0 0.4
2018-Jun-14 06:16N 45°26' E 012°13'0 0.0
2018-Jun-14 05:58N 45°26' E 012°13'0 0.0
2018-Jun-14 05:28N 45°26' E 012°13'0 0.0
2018-Jun-14 04:58N 45°26' E 012°13'0 0.0
2018-Jun-14 04:25N 45°26' E 012°13'0 0.0
2018-Jun-14 03:49N 45°26' E 012°13'0 0.0
2018-Jun-14 03:19N 45°26' E 012°13'0 0.0
2018-Jun-14 02:58N 45°26' E 012°13'0 0.0
2018-Jun-14 02:25N 45°26' E 012°13'0 0.0
2018-Jun-14 01:55N 45°26' E 012°13'0 0.0
2018-Jun-14 01:25N 45°26' E 012°13'0 0.0
2018-Jun-14 00:58N 45°26' E 012°13'0 0.0
2018-Jun-14 00:28N 45°26' E 012°13'0 0.0
2018-Jun-13 23:58N 45°26' E 012°13'0 0.0
2018-Jun-13 23:28N 45°26' E 012°13'0 0.0
2018-Jun-13 22:52N 45°26' E 012°13'0 0.0
2018-Jun-13 22:28N 45°26' E 012°13'0 0.0
2018-Jun-13 21:58N 45°26' E 012°13'0 0.0
2018-Jun-13 21:28N 45°26' E 012°13'0 0.0
2018-Jun-13 20:58N 45°26' E 012°13'0 0.0
2018-Jun-13 20:25N 45°26' E 012°13'0 0.0
2018-Jun-13 19:58N 45°26' E 012°13'0 0.0
2018-Jun-13 19:28N 45°26' E 012°13'0 0.0
2018-Jun-13 18:58N 45°26' E 012°13'0 0.0
2018-Jun-13 18:25N 45°26' E 012°13'0 0.0
2018-Jun-13 17:58N 45°26' E 012°13'0 0.0
2018-Jun-13 17:28N 45°26' E 012°13'0 0.0
2018-Jun-13 16:58N 45°26' E 012°13'0 0.0
2018-Jun-13 16:28N 45°26' E 012°13'0 0.0
2018-Jun-13 15:58N 45°26' E 012°13'0 0.0
2018-Jun-13 15:28N 45°26' E 012°13'0 0.0
2018-Jun-13 14:58N 45°26' E 012°13'0 0.0
2018-Jun-13 14:28N 45°26' E 012°13'0 0.0
2018-Jun-13 13:40N 45°26' E 012°13'0 0.0
2018-Jun-13 13:25N 45°26' E 012°13'0 0.0
2018-Jun-13 12:58N 45°26' E 012°13'0 0.0
2018-Jun-13 12:28N 45°26' E 012°13'0 0.0
2018-Jun-13 11:58N 45°26' E 012°13'0 0.0
2018-Jun-13 11:28N 45°26' E 012°13'0 0.0
2018-Jun-13 10:58N 45°26' E 012°13'0 0.0
2018-Jun-13 10:28N 45°26' E 012°13'0 0.0
2018-Jun-13 09:55N 45°26' E 012°13'0 0.0
2018-Jun-13 09:28N 45°26' E 012°13'0 0.0
2018-Jun-13 04:48N 45°26' E 012°13'0 0.0
2018-Jun-13 04:30N 45°26' E 012°13'0 0.0
2018-Jun-13 03:57N 45°26' E 012°13'0 0.0
2018-Jun-13 03:30N 45°26' E 012°13'0 0.0
2018-Jun-13 02:51N 45°26' E 012°13'0 0.0
2018-Jun-13 02:30N 45°26' E 012°13'0 0.0
2018-Jun-13 02:00N 45°26' E 012°13'0 0.0
2018-Jun-13 01:30N 45°26' E 012°13'0 0.0
2018-Jun-13 01:00N 45°26' E 012°13'0 0.0
2018-Jun-13 00:21N 45°26' E 012°13'0 0.0
2018-Jun-12 23:57N 45°26' E 012°13'0 0.0
2018-Jun-12 23:27N 45°26' E 012°13'0 0.0
2018-Jun-12 22:57N 45°26' E 012°13'0 0.0
2018-Jun-12 22:30N 45°26' E 012°13'0 0.0
2018-Jun-12 22:00N 45°26' E 012°13'0 0.0
2018-Jun-12 21:30N 45°26' E 012°13'0 0.0
2018-Jun-12 20:57N 45°26' E 012°13'0 0.0
2018-Jun-12 19:57N 45°26' E 012°13'0 0.0
2018-Jun-12 19:00N 45°26' E 012°13'0 0.1
2018-Jun-12 18:04N 45°26' E 012°14'0 4.4
2018-Jun-12 18:00N 45°26' E 012°14'2 4.2
2018-Jun-12 17:30N 45°25' E 012°16'4 8.4
2018-Jun-12 17:00N 45°21' E 012°17'4 9.2
2018-Jun-12 16:30N 45°20' E 012°23'1 1.0
2018-Jun-12 15:59N 45°20' E 012°24'0 0.0
2018-Jun-12 15:28N 45°20' E 012°24'0 0.0
2018-Jun-12 14:58N 45°20' E 012°24'0 0.0
2018-Jun-12 14:28N 45°20' E 012°24'0 0.1
2018-Jun-12 13:58N 45°20' E 012°24'0 0.2
2018-Jun-12 13:28N 45°20' E 012°24'0 0.1
2018-Jun-12 12:55N 45°20' E 012°24'0 0.1
2018-Jun-12 12:28N 45°20' E 012°24'0 0.0
2018-Jun-12 11:58N 45°20' E 012°24'0 0.0
2018-Jun-12 11:28N 45°20' E 012°24'0 0.0
2018-Jun-12 10:58N 45°20' E 012°24'0 0.0
2018-Jun-12 10:28N 45°20' E 012°24'0 0.0
2018-Jun-12 09:58N 45°20' E 012°24'0 0.0
2018-Jun-12 09:28N 45°20' E 012°24'0 0.0
2018-Jun-12 08:58N 45°20' E 012°24'0 0.0
2018-Jun-12 08:28N 45°20' E 012°24'0 0.0
2018-Jun-12 07:58N 45°20' E 012°24'0 0.0
2018-Jun-12 07:28N 45°20' E 012°24'0 0.0
2018-Jun-12 06:58N 45°20' E 012°24'0 0.0
2018-Jun-12 06:28N 45°20' E 012°24'0 0.0
2018-Jun-12 05:58N 45°20' E 012°24'0 0.6
2018-Jun-12 05:30N 45°20' E 012°24'4 7.3
2018-Jun-12 05:00N 45°18' E 012°28'4 7.9
2018-Jun-12 04:30N 45°16' E 012°33'611.1
2018-Jun-12 04:00N 45°13' E 012°40'511.0
2018-Jun-12 03:30N 45°10' E 012°46'510.7
2018-Jun-12 03:00N 45°05' E 012°50'511.1
2018-Jun-12 02:30N 45°00' E 012°54'611.1
2018-Jun-12 02:00N 44°55' E 012°57'511.1
2018-Jun-12 01:30N 44°50' E 012°59'611.1
2018-Jun-12 01:00N 44°45' E 013°02'611.0
2018-Jun-12 00:29N 44°39' E 013°04'14 8.9
2018-Jun-11 22:59N 44°31' E 012°49'711.1
2018-Jun-11 22:18N 44°29' E 012°39'810.7
2018-Jun-11 21:32N 44°29' E 012°27'111.0
2018-Jun-11 21:28N 44°30' E 012°26'7 1.5
2018-Jun-11 16:57N 44°29' E 012°16'  

Dump ship's entire track history